createdAt,value
2018-04-10T00:02:09.874Z,48.17
2018-04-10T00:04:37.128Z,47.13
2018-04-10T00:07:03.654Z,45.90
2018-04-10T00:09:30.253Z,46.53
2018-04-10T00:11:56.723Z,46.30
2018-04-10T00:14:23.247Z,46.30
2018-04-10T00:16:49.771Z,48.27
2018-04-10T00:19:17.095Z,50.07
2018-04-10T00:21:43.659Z,45.67
2018-04-10T00:24:10.170Z,42.83
2018-04-10T00:26:36.770Z,44.87
2018-04-10T00:29:03.389Z,42.10
2018-04-10T00:31:29.917Z,42.67
2018-04-10T00:33:56.411Z,41.97
2018-04-10T00:36:22.925Z,41.00
2018-04-10T00:38:50.267Z,46.37
2018-04-10T00:41:17.484Z,47.90
2018-04-10T00:43:44.108Z,47.20
2018-04-10T00:46:10.623Z,49.87
2018-04-10T00:48:37.167Z,49.83
2018-04-10T00:51:03.698Z,51.07
2018-04-10T00:53:38.330Z,52.97
2018-04-10T00:56:04.904Z,48.23
2018-04-10T00:58:31.502Z,53.83
2018-04-10T01:00:57.982Z,52.40
2018-04-10T01:03:24.547Z,57.13
2018-04-10T01:05:51.878Z,56.20
2018-04-10T01:08:18.415Z,56.23
2018-04-10T01:10:44.879Z,65.27
2018-04-10T01:13:12.152Z,58.17
2018-04-10T01:15:38.682Z,61.13
2018-04-10T01:18:05.861Z,60.30
2018-04-10T01:20:32.353Z,64.17
2018-04-10T01:22:59.025Z,65.10
2018-04-10T01:25:25.506Z,69.30
2018-04-10T01:27:52.737Z,65.63
2018-04-10T01:30:19.340Z,63.67
2018-04-10T01:32:45.867Z,63.20
2018-04-10T01:35:12.307Z,65.07
2018-04-10T01:37:43.672Z,74.53
2018-04-10T01:40:10.186Z,60.20
2018-04-10T01:42:36.613Z,61.63
2018-04-10T01:45:03.846Z,63.53
2018-04-10T01:47:33.986Z,61.63
2018-04-10T01:50:01.195Z,63.27
2018-04-10T01:52:27.685Z,59.50
2018-04-10T01:54:54.345Z,60.37
2018-04-10T01:57:20.923Z,59.20
2018-04-10T01:59:47.409Z,66.40
2018-04-10T02:02:13.911Z,60.00
2018-04-10T02:04:41.223Z,49.73
2018-04-10T02:07:07.715Z,45.87
2018-04-10T02:09:34.303Z,41.77
2018-04-10T02:12:00.855Z,41.03
2018-04-10T02:14:27.353Z,38.83
2018-04-10T02:16:54.636Z,32.57
2018-04-10T02:19:21.108Z,34.90
2018-04-10T02:21:47.575Z,32.10
2018-04-10T02:24:14.808Z,28.47
2018-04-10T02:26:41.299Z,28.33
2018-04-10T02:29:08.662Z,28.57
2018-04-10T02:31:35.964Z,25.30
2018-04-10T02:34:02.427Z,25.63
2018-04-10T02:36:28.876Z,24.23
2018-04-10T02:38:55.368Z,24.00
2018-04-10T02:41:21.864Z,25.00
2018-04-10T02:43:48.383Z,22.57
2018-04-10T02:46:15.666Z,22.67
2018-04-10T02:48:43.144Z,22.97
2018-04-10T02:51:09.621Z,22.80
2018-04-10T02:53:36.055Z,22.67
2018-04-10T02:56:02.589Z,22.90
2018-04-10T02:58:29.018Z,23.40
2018-04-10T03:00:55.554Z,23.40
2018-04-10T03:03:22.138Z,23.70
2018-04-10T03:05:48.565Z,21.10
2018-04-10T03:08:18.656Z,22.63
2018-04-10T03:10:45.160Z,22.87
2018-04-10T03:13:11.714Z,22.13
2018-04-10T03:15:38.228Z,22.07
2018-04-10T03:18:04.800Z,20.13
2018-04-10T03:20:32.080Z,21.27
2018-04-10T03:22:58.610Z,20.80
2018-04-10T03:25:25.087Z,21.47
2018-04-10T03:27:53.683Z,20.37
2018-04-10T03:30:20.272Z,19.97
2018-04-10T03:32:46.843Z,19.63
2018-04-10T03:35:13.336Z,19.53
2018-04-10T03:37:44.144Z,20.30
2018-04-10T03:40:10.674Z,19.97
2018-04-10T03:42:37.145Z,19.23
2018-04-10T03:45:04.363Z,20.00
2018-04-10T03:47:30.906Z,20.60
2018-04-10T03:49:57.372Z,20.43
2018-04-10T03:52:24.568Z,20.73
2018-04-10T03:54:51.100Z,18.77
2018-04-10T03:57:17.570Z,19.03
2018-04-10T03:59:44.066Z,18.60
2018-04-10T04:02:10.576Z,20.00
2018-04-10T04:04:37.199Z,18.80
2018-04-10T04:07:07.548Z,18.80
2018-04-10T04:09:34.044Z,18.77
2018-04-10T04:12:08.220Z,17.97
2018-04-10T04:14:34.800Z,20.63
2018-04-10T04:17:13.678Z,19.00
2018-04-10T04:19:52.344Z,18.27
2018-04-10T04:22:31.020Z,18.83
2018-04-10T04:24:57.624Z,18.30
2018-04-10T04:27:24.267Z,19.10
2018-04-10T04:29:50.904Z,18.10
2018-04-10T04:32:17.412Z,18.03
2018-04-10T04:34:43.828Z,18.23
2018-04-10T04:37:10.305Z,19.37
2018-04-10T04:39:36.751Z,18.43
2018-04-10T04:42:03.285Z,18.23
2018-04-10T04:44:29.796Z,19.57
2018-04-10T04:46:56.969Z,19.10
2018-04-10T04:49:23.451Z,18.80
2018-04-10T04:51:49.883Z,19.60
2018-04-10T04:54:16.403Z,19.67
2018-04-10T04:56:42.768Z,20.13
2018-04-10T04:59:09.174Z,19.60
2018-04-10T05:01:35.588Z,20.40
2018-04-10T05:04:01.961Z,20.73
2018-04-10T05:06:28.436Z,18.97
2018-04-10T05:08:54.820Z,19.27
2018-04-10T05:11:21.299Z,19.80
2018-04-10T05:13:47.742Z,19.23
2018-04-10T05:16:14.228Z,19.57
2018-04-10T05:18:40.651Z,19.77
2018-04-10T05:21:07.055Z,19.43
2018-04-10T05:23:33.531Z,19.87
2018-04-10T05:26:00.027Z,19.80
2018-04-10T05:28:30.200Z,19.73
2018-04-10T05:30:57.305Z,20.47
2018-04-10T05:33:23.691Z,20.03
2018-04-10T05:35:50.829Z,21.70
2018-04-10T05:38:17.941Z,21.67
2018-04-10T05:40:44.329Z,19.53
2018-04-10T05:43:10.763Z,19.87
2018-04-10T05:45:37.175Z,18.97
2018-04-10T05:48:07.360Z,21.37
2018-04-10T05:50:33.769Z,20.00
2018-04-10T05:53:00.153Z,21.80
2018-04-10T05:55:26.573Z,24.30
2018-04-10T05:57:53.975Z,22.07
2018-04-10T06:00:20.400Z,21.67
2018-04-10T06:02:47.527Z,20.60
2018-04-10T06:05:13.851Z,23.30
2018-04-10T06:07:43.667Z,22.60
2018-04-10T06:10:10.089Z,21.37
2018-04-10T06:12:36.665Z,21.67
2018-04-10T06:15:03.114Z,21.17
2018-04-10T06:17:30.532Z,21.70
2018-04-10T06:19:57.983Z,20.53
2018-04-10T06:22:25.417Z,20.27
2018-04-10T06:24:51.864Z,19.50
2018-04-10T06:27:21.466Z,19.90
2018-04-10T06:29:50.070Z,20.50
2018-04-10T06:32:16.416Z,21.60
2018-04-10T06:34:43.483Z,20.50
2018-04-10T06:37:10.559Z,18.33
2018-04-10T06:39:36.892Z,18.97
2018-04-10T06:42:03.218Z,18.17
2018-04-10T06:44:29.571Z,17.63
2018-04-10T06:46:59.535Z,18.93
2018-04-10T06:49:26.654Z,18.13
2018-04-10T06:51:52.980Z,18.10
2018-04-10T06:54:19.379Z,17.57
2018-04-10T06:56:48.970Z,16.17
2018-04-10T06:59:15.304Z,16.23
2018-04-10T07:01:42.420Z,16.77
2018-04-10T07:04:08.750Z,15.60
2018-04-10T07:06:35.086Z,14.17
2018-04-10T07:09:03.015Z,13.50
2018-04-10T07:11:29.343Z,13.10
2018-04-10T07:13:55.679Z,13.43
2018-04-10T07:16:21.998Z,12.63
2018-04-10T07:18:48.350Z,12.20
2018-04-10T07:21:14.696Z,13.20
2018-04-10T07:23:41.024Z,13.13
2018-04-10T07:26:07.356Z,10.60
2018-04-10T07:28:33.717Z,10.43
2018-04-10T07:31:00.857Z,10.53
2018-04-10T07:33:27.209Z,10.20
2018-04-10T07:35:53.607Z,9.40
2018-04-10T07:38:19.936Z,8.50
2018-04-10T07:40:46.281Z,9.03
2018-04-10T07:43:12.629Z,8.37
2018-04-10T07:45:39.731Z,8.27
2018-04-10T07:48:07.072Z,7.77
2018-04-10T07:50:33.411Z,8.17
2018-04-10T07:52:59.769Z,7.20
2018-04-10T07:55:26.166Z,7.37
2018-04-10T07:57:52.498Z,7.20
2018-04-10T08:00:18.828Z,6.73
2018-04-10T08:02:45.191Z,6.40
2018-04-10T08:05:11.565Z,6.40
2018-04-10T08:07:38.642Z,6.03
2018-04-10T08:10:04.971Z,5.80
2018-04-10T08:12:31.293Z,5.57
2018-04-10T08:14:57.642Z,6.60
2018-04-10T08:17:24.003Z,6.30
2018-04-10T08:19:50.354Z,5.70
2018-04-10T08:22:17.443Z,4.97
2018-04-10T08:24:43.778Z,5.07
2018-04-10T08:27:10.103Z,5.43
2018-04-10T08:29:36.458Z,4.87
2018-04-10T08:32:02.791Z,6.03
2018-04-10T08:34:29.114Z,6.60
2018-04-10T08:36:55.501Z,6.20
2018-04-10T08:39:22.676Z,7.07
2018-04-10T08:41:49.933Z,6.70
2018-04-10T08:44:16.260Z,7.17
2018-04-10T08:46:42.636Z,6.27
2018-04-10T08:49:09.007Z,6.77
2018-04-10T08:51:35.365Z,6.40
2018-04-10T08:54:01.710Z,6.23
2018-04-10T08:56:28.044Z,5.90
2018-04-10T08:58:54.400Z,5.70
2018-04-10T09:01:20.734Z,5.70
2018-04-10T09:03:47.066Z,5.60
2018-04-10T09:06:13.456Z,5.33
2018-04-10T09:08:39.795Z,4.67
2018-04-10T09:11:06.119Z,4.93
2018-04-10T09:13:32.470Z,4.70
2018-04-10T09:15:58.813Z,4.50
2018-04-10T09:18:25.201Z,5.10
2018-04-10T09:20:51.535Z,4.07
2018-04-10T09:23:17.874Z,4.70
2018-04-10T09:25:44.216Z,4.87
2018-04-10T09:28:11.558Z,4.23
2018-04-10T09:30:37.894Z,4.87
2018-04-10T09:33:04.219Z,4.10
2018-04-10T09:35:30.567Z,3.80
2018-04-10T09:37:56.918Z,3.60
2018-04-10T09:40:23.264Z,3.70
2018-04-10T09:42:49.595Z,3.50
2018-04-10T09:45:15.925Z,3.77
2018-04-10T09:47:42.995Z,3.90
2018-04-10T09:50:10.105Z,4.00
2018-04-10T09:52:36.449Z,3.70
2018-04-10T09:55:02.774Z,4.07
2018-04-10T09:57:29.136Z,3.87
2018-04-10T09:59:55.509Z,3.47
2018-04-10T10:02:21.835Z,3.37
2018-04-10T10:04:48.173Z,3.30
2018-04-10T10:07:14.508Z,3.30
2018-04-10T10:09:41.626Z,3.50
2018-04-10T10:12:07.965Z,3.23
2018-04-10T10:14:34.290Z,3.00
2018-04-10T10:17:00.614Z,2.83
2018-04-10T10:19:26.975Z,3.20
2018-04-10T10:21:53.309Z,3.17
2018-04-10T10:24:19.658Z,3.60
2018-04-10T10:26:46.728Z,3.60
2018-04-10T10:29:13.067Z,3.07
2018-04-10T10:31:39.380Z,2.97
2018-04-10T10:34:05.702Z,2.53
2018-04-10T10:36:32.026Z,2.50
2018-04-10T10:38:58.382Z,2.17
2018-04-10T10:41:24.698Z,2.20
2018-04-10T10:43:51.171Z,2.47
2018-04-10T10:46:18.245Z,1.93
2018-04-10T10:48:44.589Z,1.90
2018-04-10T10:51:10.924Z,2.20
2018-04-10T10:53:37.262Z,2.00
2018-04-10T10:56:03.608Z,1.80
2018-04-10T10:58:29.935Z,2.17
2018-04-10T11:00:56.264Z,2.40
2018-04-10T11:03:22.604Z,2.00
2018-04-10T11:05:49.007Z,2.20
2018-04-10T11:08:15.336Z,1.90
2018-04-10T11:10:41.663Z,2.00
2018-04-10T11:13:08.060Z,1.87
2018-04-10T11:15:34.398Z,1.97
2018-04-10T11:18:01.483Z,1.90
2018-04-10T11:20:27.819Z,1.90
2018-04-10T11:22:54.181Z,2.10
2018-04-10T11:25:20.508Z,2.10
2018-04-10T11:27:46.823Z,2.10
2018-04-10T11:30:13.159Z,2.13
2018-04-10T11:32:40.220Z,2.37
2018-04-10T11:35:06.554Z,2.30
2018-04-10T11:37:32.996Z,2.10
2018-04-10T11:39:59.321Z,1.93
2018-04-10T11:42:25.655Z,2.20
2018-04-10T11:44:52.000Z,2.17
2018-04-10T11:47:18.335Z,2.43
2018-04-10T11:49:45.411Z,2.47
2018-04-10T11:52:11.743Z,2.70
2018-04-10T11:54:38.101Z,2.50
2018-04-10T11:57:04.465Z,2.47
2018-04-10T11:59:30.806Z,2.63
2018-04-10T12:01:58.644Z,2.80
2018-04-10T12:04:24.991Z,2.50
2018-04-10T12:06:51.344Z,2.50
2018-04-10T12:09:18.415Z,2.73
2018-04-10T12:11:44.736Z,2.50
2018-04-10T12:14:11.105Z,2.70
2018-04-10T12:16:37.454Z,2.80
2018-04-10T12:19:03.818Z,3.00
2018-04-10T12:21:30.892Z,2.43
2018-04-10T12:23:57.245Z,2.90
2018-04-10T12:26:23.574Z,2.20
2018-04-10T12:28:49.904Z,2.37
2018-04-10T12:31:16.229Z,2.40
2018-04-10T12:33:42.567Z,2.47
2018-04-10T12:36:08.893Z,2.47
2018-04-10T12:38:35.254Z,2.80
2018-04-10T12:41:01.575Z,2.27
2018-04-10T12:43:27.927Z,2.50
2018-04-10T12:45:54.277Z,1.80
2018-04-10T12:48:21.355Z,2.10
2018-04-10T12:50:47.695Z,1.90
2018-04-10T12:53:14.051Z,1.80
2018-04-10T12:55:40.431Z,2.20
2018-04-10T12:58:07.513Z,2.30
2018-04-10T13:00:35.321Z,2.20
2018-04-10T13:03:01.645Z,1.80
2018-04-10T13:05:27.961Z,2.03
2018-04-10T13:07:54.305Z,2.10
2018-04-10T13:10:20.631Z,2.73
2018-04-10T13:12:46.969Z,3.20
2018-04-10T13:15:13.297Z,2.77
2018-04-10T13:17:39.623Z,2.10
2018-04-10T13:20:06.696Z,1.90
2018-04-10T13:22:33.767Z,1.97
2018-04-10T13:25:00.822Z,1.87
2018-04-10T13:27:27.170Z,1.90
2018-04-10T13:29:53.505Z,1.70
2018-04-10T13:32:19.830Z,1.90
2018-04-10T13:34:46.188Z,2.40
2018-04-10T13:37:12.522Z,2.23
2018-04-10T13:39:38.852Z,3.40
2018-04-10T13:42:05.182Z,3.37
2018-04-10T13:44:31.525Z,4.30
2018-04-10T13:46:57.870Z,3.90
2018-04-10T13:49:24.226Z,4.50
2018-04-10T13:51:51.291Z,3.70
2018-04-10T13:54:17.656Z,4.23
2018-04-10T13:56:44.004Z,4.90
2018-04-10T13:59:10.322Z,4.80
2018-04-10T14:01:36.647Z,4.57
2018-04-10T14:04:03.006Z,4.60
2018-04-10T14:06:29.398Z,4.03
2018-04-10T14:08:55.745Z,4.53
2018-04-10T14:11:22.063Z,4.60
2018-04-10T14:13:48.427Z,4.40
2018-04-10T14:16:14.789Z,4.57
2018-04-10T14:18:41.849Z,4.73
2018-04-10T14:21:08.213Z,4.53
2018-04-10T14:23:34.543Z,4.40
2018-04-10T14:26:00.895Z,4.63
2018-04-10T14:28:27.230Z,4.73
2018-04-10T14:30:53.602Z,4.83
2018-04-10T14:33:19.934Z,4.77
2018-04-10T14:35:47.007Z,4.87
2018-04-10T14:38:13.344Z,4.60
2018-04-10T14:40:39.725Z,4.87
2018-04-10T14:43:06.815Z,5.10
2018-04-10T14:45:33.146Z,5.30
2018-04-10T14:47:59.476Z,4.77
2018-04-10T14:50:25.813Z,4.73
2018-04-10T14:52:52.170Z,4.60
2018-04-10T14:55:18.548Z,5.27
2018-04-10T14:57:45.644Z,4.90
2018-04-10T15:00:11.978Z,4.20
2018-04-10T15:02:38.360Z,4.60
2018-04-10T15:05:05.438Z,4.27
2018-04-10T15:07:31.786Z,4.13
2018-04-10T15:09:58.121Z,4.03
2018-04-10T15:12:24.460Z,4.07
2018-04-10T15:14:50.819Z,4.40
2018-04-10T15:17:17.946Z,4.70
2018-04-10T15:19:44.313Z,4.27
2018-04-10T15:22:11.408Z,4.13
2018-04-10T15:24:37.741Z,3.87
2018-04-10T15:27:07.638Z,4.03
2018-04-10T15:29:33.980Z,4.53
2018-04-10T15:32:00.406Z,4.17
2018-04-10T15:34:26.804Z,4.10
2018-04-10T15:36:53.873Z,4.10
2018-04-10T15:39:20.217Z,3.80
2018-04-10T15:41:46.559Z,4.20
2018-04-10T15:44:12.923Z,3.93
2018-04-10T15:46:39.243Z,3.93
2018-04-10T15:49:05.575Z,3.77
2018-04-10T15:51:31.932Z,4.13
2018-04-10T15:53:59.002Z,3.70
2018-04-10T15:56:26.110Z,3.87
2018-04-10T15:58:52.414Z,3.97
2018-04-10T16:01:18.750Z,3.67
2018-04-10T16:03:45.072Z,3.50
2018-04-10T16:06:11.411Z,4.00
2018-04-10T16:08:37.749Z,3.40
2018-04-10T16:11:04.103Z,3.27
2018-04-10T16:13:30.445Z,3.60
2018-04-10T16:15:56.789Z,3.50
2018-04-10T16:18:23.848Z,3.60
2018-04-10T16:20:50.918Z,3.80
2018-04-10T16:23:17.269Z,3.60
2018-04-10T16:25:43.693Z,3.53
2018-04-10T16:28:11.051Z,3.43
2018-04-10T16:30:37.487Z,3.30
2018-04-10T16:33:03.845Z,3.10
2018-04-10T16:35:30.206Z,2.90
2018-04-10T16:37:56.541Z,3.17
2018-04-10T16:40:22.901Z,2.97
2018-04-10T16:42:49.231Z,3.27
2018-04-10T16:45:15.587Z,2.90
2018-04-10T16:47:41.923Z,3.10
2018-04-10T16:50:08.293Z,3.10
2018-04-10T16:52:35.615Z,2.40
2018-04-10T16:55:02.080Z,2.90
2018-04-10T16:57:29.162Z,3.37
2018-04-10T16:59:55.599Z,4.10
2018-04-10T17:02:23.011Z,4.70
2018-04-10T17:04:49.415Z,3.13
2018-04-10T17:07:15.816Z,3.60
2018-04-10T17:09:42.147Z,3.03
2018-04-10T17:12:08.521Z,3.33
2018-04-10T17:14:34.915Z,3.23
2018-04-10T17:17:01.270Z,3.47
2018-04-10T17:19:27.639Z,2.73
2018-04-10T17:21:54.024Z,4.90
2018-04-10T17:24:20.422Z,3.40
2018-04-10T17:26:46.805Z,3.50
2018-04-10T17:29:13.190Z,3.30
2018-04-10T17:31:39.587Z,3.47
2018-04-10T17:34:05.961Z,3.90
2018-04-10T17:36:32.369Z,4.00
2018-04-10T17:38:59.456Z,3.17
2018-04-10T17:41:25.803Z,2.73
2018-04-10T17:43:52.154Z,2.80
2018-04-10T17:46:18.508Z,2.60
2018-04-10T17:48:45.599Z,2.57
2018-04-10T17:51:11.939Z,2.30
2018-04-10T17:53:38.319Z,2.37
2018-04-10T17:56:04.686Z,2.60
2018-04-10T17:58:31.018Z,2.90
2018-04-10T18:00:57.364Z,2.90
2018-04-10T18:03:23.705Z,2.90
2018-04-10T18:05:50.117Z,3.70
2018-04-10T18:08:19.782Z,4.20
2018-04-10T18:10:56.890Z,3.80
2018-04-10T18:13:32.692Z,3.57
2018-04-10T18:15:59.154Z,3.60
2018-04-10T18:18:25.660Z,3.40
2018-04-10T18:20:52.138Z,3.23
2018-04-10T18:23:19.278Z,2.90
2018-04-10T18:25:45.724Z,2.40
2018-04-10T18:28:12.914Z,2.53
2018-04-10T18:30:39.336Z,2.13
2018-04-10T18:33:05.806Z,3.97
2018-04-10T18:35:33.059Z,2.30
2018-04-10T18:37:59.517Z,1.87
2018-04-10T18:40:25.927Z,2.30
2018-04-10T18:42:52.433Z,2.00
2018-04-10T18:45:18.906Z,2.30
2018-04-10T18:47:45.447Z,2.60
2018-04-10T18:50:11.928Z,2.43
2018-04-10T18:52:38.381Z,2.50
2018-04-10T18:55:04.829Z,2.40
2018-04-10T18:57:31.328Z,2.70
2018-04-10T18:59:57.909Z,2.70
2018-04-10T19:02:24.365Z,2.80
2018-04-10T19:04:51.523Z,3.00
2018-04-10T19:07:17.971Z,2.43
2018-04-10T19:09:44.445Z,2.77
2018-04-10T19:12:10.851Z,2.80
2018-04-10T19:14:37.239Z,3.10
2018-04-10T19:17:03.605Z,4.40
2018-04-10T19:19:30.151Z,3.23
2018-04-10T19:21:56.663Z,3.40
2018-04-10T19:24:23.893Z,3.10
2018-04-10T19:26:53.928Z,2.73
2018-04-10T19:29:20.410Z,3.20
2018-04-10T19:31:46.887Z,3.00
2018-04-10T19:34:14.119Z,3.23
2018-04-10T19:36:40.567Z,3.40
2018-04-10T19:39:07.696Z,3.40
2018-04-10T19:41:34.091Z,3.80
2018-04-10T19:44:00.439Z,3.73
2018-04-10T19:46:26.819Z,3.40
2018-04-10T19:48:53.254Z,3.13
2018-04-10T19:51:19.652Z,3.40
2018-04-10T19:53:46.089Z,3.57
2018-04-10T19:56:12.429Z,3.80
2018-04-10T19:58:38.785Z,4.07
2018-04-10T20:01:05.253Z,3.57
2018-04-10T20:03:31.659Z,3.50
2018-04-10T20:05:58.190Z,3.60
2018-04-10T20:08:24.679Z,3.20
2018-04-10T20:10:51.100Z,3.67
2018-04-10T20:13:17.541Z,4.63
2018-04-10T20:15:44.023Z,4.20
2018-04-10T20:18:11.128Z,4.53
2018-04-10T20:20:37.594Z,4.40
2018-04-10T20:23:04.832Z,4.17
2018-04-10T20:25:31.378Z,5.17
2018-04-10T20:27:57.933Z,5.50
2018-04-10T20:30:24.542Z,5.63
2018-04-10T20:32:51.091Z,5.30
2018-04-10T20:35:17.473Z,5.23
2018-04-10T20:37:43.941Z,5.60
2018-04-10T20:40:10.387Z,4.87
2018-04-10T20:42:36.886Z,6.13
2018-04-10T20:45:03.432Z,5.27
2018-04-10T20:47:29.957Z,4.90
2018-04-10T20:49:56.392Z,5.80
2018-04-10T20:52:22.877Z,5.60
2018-04-10T20:54:49.390Z,5.87
2018-04-10T20:57:15.857Z,5.37
2018-04-10T20:59:42.315Z,5.63
2018-04-10T21:02:08.782Z,6.00
2018-04-10T21:04:35.166Z,6.50
2018-04-10T21:07:02.331Z,7.03
2018-04-10T21:09:29.526Z,6.30
2018-04-10T21:11:56.022Z,6.37
2018-04-10T21:14:22.406Z,6.27
2018-04-10T21:16:48.829Z,6.10
2018-04-10T21:19:15.367Z,6.80
2018-04-10T21:21:41.869Z,5.63
2018-04-10T21:24:08.304Z,6.40
2018-04-10T21:26:34.771Z,6.27
2018-04-10T21:29:01.165Z,5.97
2018-04-10T21:31:27.574Z,6.40
2018-04-10T21:33:54.094Z,6.73
2018-04-10T21:36:20.548Z,7.40
2018-04-10T21:38:47.740Z,7.27
2018-04-10T21:41:14.227Z,7.50
2018-04-10T21:43:41.331Z,7.57
2018-04-10T21:46:07.838Z,7.80
2018-04-10T21:48:34.367Z,8.77
2018-04-10T21:51:00.890Z,7.60
2018-04-10T21:53:28.106Z,8.30
2018-04-10T21:55:54.599Z,7.93
2018-04-10T21:58:21.068Z,8.20
2018-04-10T22:00:47.611Z,9.57
2018-04-10T22:03:14.199Z,10.30
2018-04-10T22:05:41.474Z,9.37
2018-04-10T22:08:07.963Z,10.43
2018-04-10T22:10:34.420Z,11.90
2018-04-10T22:13:01.712Z,14.27
2018-04-10T22:15:28.239Z,12.47
2018-04-10T22:17:54.742Z,10.77
2018-04-10T22:20:21.252Z,9.87
2018-04-10T22:22:48.582Z,10.33
2018-04-10T22:25:15.070Z,11.30
2018-04-10T22:27:41.640Z,10.37
2018-04-10T22:30:08.123Z,12.27
2018-04-10T22:32:34.723Z,12.07
2018-04-10T22:35:01.956Z,12.13
2018-04-10T22:37:28.511Z,11.30
2018-04-10T22:39:55.830Z,9.93
2018-04-10T22:42:22.334Z,10.60
2018-04-10T22:44:48.828Z,10.03
2018-04-10T22:47:16.136Z,11.50
2018-04-10T22:49:42.615Z,11.80
2018-04-10T22:52:09.157Z,12.43
2018-04-10T22:54:36.628Z,11.80
2018-04-10T22:57:03.909Z,11.00
2018-04-10T22:59:30.490Z,11.37
2018-04-10T23:01:56.998Z,11.07
2018-04-10T23:04:23.463Z,10.53
2018-04-10T23:06:49.937Z,11.40
2018-04-10T23:09:17.173Z,12.60
2018-04-10T23:11:43.784Z,10.17
2018-04-10T23:14:10.158Z,12.40
2018-04-10T23:16:37.383Z,11.73
2018-04-10T23:19:03.788Z,11.43
2018-04-10T23:21:30.190Z,11.37
2018-04-10T23:23:57.384Z,12.13
2018-04-10T23:26:23.876Z,13.17
2018-04-10T23:28:50.282Z,14.07
2018-04-10T23:31:16.782Z,14.83
2018-04-10T23:33:43.263Z,12.87
2018-04-10T23:36:09.761Z,13.10
2018-04-10T23:38:36.347Z,16.07
2018-04-10T23:41:02.946Z,15.93
2018-04-10T23:43:29.407Z,14.77
2018-04-10T23:45:55.854Z,15.37
2018-04-10T23:48:23.273Z,16.37
2018-04-10T23:50:49.833Z,16.83
2018-04-10T23:53:16.368Z,18.20
2018-04-10T23:55:42.890Z,17.47
2018-04-10T23:58:09.293Z,16.90
